sensor_id;sensor_type;location;lat;lon;timestamp;P1;durP1;ratioP1;P2;durP2;ratioP2
29200;SDS011;16244;51.956;12.980;2023-04-23T00:00:42;9.60;;;6.97;;
29200;SDS011;16244;51.956;12.980;2023-04-23T00:03:11;7.37;;;6.47;;
29200;SDS011;16244;51.956;12.980;2023-04-23T00:05:40;7.17;;;6.57;;
29200;SDS011;16244;51.956;12.980;2023-04-23T00:08:10;16.07;;;6.30;;
29200;SDS011;16244;51.956;12.980;2023-04-23T00:10:40;12.20;;;6.70;;
29200;SDS011;16244;51.956;12.980;2023-04-23T00:13:08;7.63;;;6.30;;
29200;SDS011;16244;51.956;12.980;2023-04-23T00:15:36;10.20;;;7.37;;
29200;SDS011;16244;51.956;12.980;2023-04-23T00:18:05;8.93;;;6.47;;
29200;SDS011;16244;51.956;12.980;2023-04-23T00:20:33;6.47;;;5.87;;
29200;SDS011;16244;51.956;12.980;2023-04-23T00:23:00;7.93;;;7.13;;
29200;SDS011;16244;51.956;12.980;2023-04-23T00:25:28;7.93;;;6.43;;
29200;SDS011;16244;51.956;12.980;2023-04-23T00:27:56;11.80;;;7.30;;
29200;SDS011;16244;51.956;12.980;2023-04-23T00:30:24;7.83;;;7.10;;
29200;SDS011;16244;51.956;12.980;2023-04-23T00:32:52;7.70;;;6.70;;
29200;SDS011;16244;51.956;12.980;2023-04-23T00:35:20;13.90;;;6.50;;
29200;SDS011;16244;51.956;12.980;2023-04-23T00:37:48;11.40;;;6.87;;
29200;SDS011;16244;51.956;12.980;2023-04-23T00:40:15;7.60;;;6.77;;
29200;SDS011;16244;51.956;12.980;2023-04-23T00:42:43;12.07;;;7.07;;
29200;SDS011;16244;51.956;12.980;2023-04-23T00:45:12;6.17;;;5.83;;
29200;SDS011;16244;51.956;12.980;2023-04-23T00:47:40;8.07;;;7.27;;
29200;SDS011;16244;51.956;12.980;2023-04-23T00:50:07;10.13;;;7.50;;
29200;SDS011;16244;51.956;12.980;2023-04-23T00:52:35;15.73;;;7.50;;
29200;SDS011;16244;51.956;12.980;2023-04-23T00:55:04;9.63;;;6.57;;
29200;SDS011;16244;51.956;12.980;2023-04-23T00:57:33;10.80;;;6.90;;
29200;SDS011;16244;51.956;12.980;2023-04-23T01:00:02;16.67;;;8.23;;
29200;SDS011;16244;51.956;12.980;2023-04-23T01:02:33;7.47;;;6.77;;
29200;SDS011;16244;51.956;12.980;2023-04-23T01:05:03;24.03;;;8.13;;
29200;SDS011;16244;51.956;12.980;2023-04-23T01:07:33;8.43;;;7.63;;
29200;SDS011;16244;51.956;12.980;2023-04-23T01:10:01;9.13;;;8.00;;
29200;SDS011;16244;51.956;12.980;2023-04-23T01:12:30;13.97;;;8.97;;
29200;SDS011;16244;51.956;12.980;2023-04-23T01:14:58;10.50;;;8.53;;
29200;SDS011;16244;51.956;12.980;2023-04-23T01:17:27;11.60;;;8.90;;
29200;SDS011;16244;51.956;12.980;2023-04-23T01:19:56;8.30;;;7.70;;
29200;SDS011;16244;51.956;12.980;2023-04-23T01:22:25;14.03;;;8.70;;
29200;SDS011;16244;51.956;12.980;2023-04-23T01:24:53;11.50;;;8.60;;
29200;SDS011;16244;51.956;12.980;2023-04-23T01:27:21;9.97;;;8.90;;
29200;SDS011;16244;51.956;12.980;2023-04-23T01:29:49;9.53;;;8.00;;
29200;SDS011;16244;51.956;12.980;2023-04-23T01:32:18;8.43;;;7.60;;
29200;SDS011;16244;51.956;12.980;2023-04-23T01:34:46;10.13;;;9.17;;
29200;SDS011;16244;51.956;12.980;2023-04-23T01:37:15;10.07;;;9.20;;
29200;SDS011;16244;51.956;12.980;2023-04-23T01:39:44;9.47;;;8.67;;
29200;SDS011;16244;51.956;12.980;2023-04-23T01:42:12;16.23;;;9.00;;
29200;SDS011;16244;51.956;12.980;2023-04-23T01:44:39;9.73;;;8.80;;
29200;SDS011;16244;51.956;12.980;2023-04-23T01:47:07;10.23;;;8.80;;
29200;SDS011;16244;51.956;12.980;2023-04-23T01:49:36;10.30;;;8.97;;
29200;SDS011;16244;51.956;12.980;2023-04-23T01:52:03;11.73;;;8.40;;
29200;SDS011;16244;51.956;12.980;2023-04-23T01:54:31;12.93;;;8.50;;
29200;SDS011;16244;51.956;12.980;2023-04-23T01:57:00;9.30;;;8.50;;
29200;SDS011;16244;51.956;12.980;2023-04-23T01:59:27;9.57;;;7.93;;
29200;SDS011;16244;51.956;12.980;2023-04-23T02:01:55;10.33;;;8.60;;
29200;SDS011;16244;51.956;12.980;2023-04-23T02:04:23;9.77;;;7.73;;
29200;SDS011;16244;51.956;12.980;2023-04-23T02:06:51;9.07;;;8.27;;
29200;SDS011;16244;51.956;12.980;2023-04-23T02:09:18;15.33;;;8.93;;
29200;SDS011;16244;51.956;12.980;2023-04-23T02:11:46;10.67;;;9.07;;
29200;SDS011;16244;51.956;12.980;2023-04-23T02:14:14;10.07;;;8.70;;
29200;SDS011;16244;51.956;12.980;2023-04-23T02:16:42;9.13;;;8.53;;
29200;SDS011;16244;51.956;12.980;2023-04-23T02:19:10;9.33;;;8.63;;
29200;SDS011;16244;51.956;12.980;2023-04-23T02:21:37;10.97;;;8.80;;
29200;SDS011;16244;51.956;12.980;2023-04-23T02:24:05;9.77;;;8.77;;
29200;SDS011;16244;51.956;12.980;2023-04-23T02:26:33;10.80;;;8.47;;
29200;SDS011;16244;51.956;12.980;2023-04-23T02:29:00;10.00;;;9.00;;
29200;SDS011;16244;51.956;12.980;2023-04-23T02:31:29;8.93;;;8.03;;
29200;SDS011;16244;51.956;12.980;2023-04-23T02:33:57;8.83;;;7.90;;
29200;SDS011;16244;51.956;12.980;2023-04-23T02:36:25;8.10;;;7.40;;
29200;SDS011;16244;51.956;12.980;2023-04-23T02:38:55;9.47;;;8.50;;
29200;SDS011;16244;51.956;12.980;2023-04-23T02:41:23;9.33;;;8.40;;
29200;SDS011;16244;51.956;12.980;2023-04-23T02:43:50;15.33;;;8.53;;
29200;SDS011;16244;51.956;12.980;2023-04-23T02:46:18;9.50;;;8.77;;
29200;SDS011;16244;51.956;12.980;2023-04-23T02:48:47;11.40;;;7.50;;
29200;SDS011;16244;51.956;12.980;2023-04-23T02:51:14;14.80;;;8.90;;
29200;SDS011;16244;51.956;12.980;2023-04-23T02:53:42;13.77;;;7.40;;
29200;SDS011;16244;51.956;12.980;2023-04-23T02:56:10;7.80;;;7.20;;
29200;SDS011;16244;51.956;12.980;2023-04-23T02:58:37;7.87;;;7.17;;
29200;SDS011;16244;51.956;12.980;2023-04-23T03:01:05;9.53;;;8.17;;
29200;SDS011;16244;51.956;12.980;2023-04-23T03:03:32;9.23;;;8.43;;
29200;SDS011;16244;51.956;12.980;2023-04-23T03:06:02;9.07;;;8.37;;
29200;SDS011;16244;51.956;12.980;2023-04-23T03:08:31;8.07;;;7.47;;
29200;SDS011;16244;51.956;12.980;2023-04-23T03:10:59;8.40;;;7.80;;
29200;SDS011;16244;51.956;12.980;2023-04-23T03:13:26;9.77;;;8.40;;
29200;SDS011;16244;51.956;12.980;2023-04-23T03:15:55;8.17;;;7.33;;
29200;SDS011;16244;51.956;12.980;2023-04-23T03:18:23;13.47;;;8.10;;
29200;SDS011;16244;51.956;12.980;2023-04-23T03:20:50;8.13;;;7.67;;
29200;SDS011;16244;51.956;12.980;2023-04-23T03:23:19;12.03;;;8.40;;
29200;SDS011;16244;51.956;12.980;2023-04-23T03:25:47;8.50;;;7.90;;
29200;SDS011;16244;51.956;12.980;2023-04-23T03:28:14;8.80;;;8.07;;
29200;SDS011;16244;51.956;12.980;2023-04-23T03:30:42;8.67;;;7.90;;
29200;SDS011;16244;51.956;12.980;2023-04-23T03:33:09;7.77;;;7.00;;
29200;SDS011;16244;51.956;12.980;2023-04-23T03:35:37;11.23;;;8.60;;
29200;SDS011;16244;51.956;12.980;2023-04-23T03:38:05;8.20;;;7.70;;
29200;SDS011;16244;51.956;12.980;2023-04-23T03:40:34;11.13;;;7.37;;
29200;SDS011;16244;51.956;12.980;2023-04-23T03:43:01;9.10;;;7.27;;
29200;SDS011;16244;51.956;12.980;2023-04-23T03:45:29;9.30;;;7.80;;
29200;SDS011;16244;51.956;12.980;2023-04-23T03:47:56;7.60;;;7.10;;
29200;SDS011;16244;51.956;12.980;2023-04-23T03:50:24;7.60;;;7.00;;
29200;SDS011;16244;51.956;12.980;2023-04-23T03:52:51;7.67;;;7.00;;
29200;SDS011;16244;51.956;12.980;2023-04-23T03:55:19;10.90;;;9.60;;
29200;SDS011;16244;51.956;12.980;2023-04-23T03:57:48;10.43;;;7.60;;
29200;SDS011;16244;51.956;12.980;2023-04-23T04:00:16;7.73;;;7.13;;
29200;SDS011;16244;51.956;12.980;2023-04-23T04:02:44;8.10;;;7.13;;
29200;SDS011;16244;51.956;12.980;2023-04-23T04:05:11;7.87;;;7.30;;
29200;SDS011;16244;51.956;12.980;2023-04-23T04:07:39;11.73;;;8.40;;
29200;SDS011;16244;51.956;12.980;2023-04-23T04:10:07;9.50;;;7.90;;
29200;SDS011;16244;51.956;12.980;2023-04-23T04:12:35;13.90;;;8.27;;
29200;SDS011;16244;51.956;12.980;2023-04-23T04:15:04;8.60;;;8.00;;
29200;SDS011;16244;51.956;12.980;2023-04-23T04:17:32;9.37;;;8.07;;
29200;SDS011;16244;51.956;12.980;2023-04-23T04:20:00;9.80;;;8.30;;
29200;SDS011;16244;51.956;12.980;2023-04-23T04:22:28;9.53;;;8.20;;
29200;SDS011;16244;51.956;12.980;2023-04-23T04:24:55;11.43;;;8.90;;
29200;SDS011;16244;51.956;12.980;2023-04-23T04:27:23;11.43;;;9.30;;
29200;SDS011;16244;51.956;12.980;2023-04-23T04:29:51;9.97;;;9.27;;
29200;SDS011;16244;51.956;12.980;2023-04-23T04:32:21;10.20;;;9.03;;
29200;SDS011;16244;51.956;12.980;2023-04-23T04:34:48;10.10;;;9.30;;
29200;SDS011;16244;51.956;12.980;2023-04-23T04:37:17;10.60;;;9.50;;
29200;SDS011;16244;51.956;12.980;2023-04-23T04:39:45;9.57;;;8.73;;
29200;SDS011;16244;51.956;12.980;2023-04-23T04:42:14;10.27;;;9.37;;
29200;SDS011;16244;51.956;12.980;2023-04-23T04:44:42;9.90;;;8.90;;
29200;SDS011;16244;51.956;12.980;2023-04-23T04:47:10;9.17;;;8.57;;
29200;SDS011;16244;51.956;12.980;2023-04-23T04:49:39;8.47;;;7.90;;
29200;SDS011;16244;51.956;12.980;2023-04-23T04:52:07;9.50;;;8.50;;
29200;SDS011;16244;51.956;12.980;2023-04-23T04:54:34;8.90;;;8.30;;
29200;SDS011;16244;51.956;12.980;2023-04-23T04:57:02;9.87;;;9.07;;
29200;SDS011;16244;51.956;12.980;2023-04-23T04:59:29;9.97;;;9.07;;
29200;SDS011;16244;51.956;12.980;2023-04-23T05:01:57;10.23;;;9.23;;
29200;SDS011;16244;51.956;12.980;2023-04-23T05:04:25;9.53;;;8.73;;
29200;SDS011;16244;51.956;12.980;2023-04-23T05:06:54;10.20;;;9.30;;
29200;SDS011;16244;51.956;12.980;2023-04-23T05:09:22;9.33;;;8.73;;
29200;SDS011;16244;51.956;12.980;2023-04-23T05:11:51;10.20;;;9.30;;
29200;SDS011;16244;51.956;12.980;2023-04-23T05:14:19;8.77;;;8.07;;
29200;SDS011;16244;51.956;12.980;2023-04-23T05:16:46;13.23;;;9.00;;
29200;SDS011;16244;51.956;12.980;2023-04-23T05:19:14;8.50;;;7.90;;
29200;SDS011;16244;51.956;12.980;2023-04-23T05:21:42;9.27;;;8.43;;
29200;SDS011;16244;51.956;12.980;2023-04-23T05:24:11;14.23;;;7.50;;
29200;SDS011;16244;51.956;12.980;2023-04-23T05:26:38;10.77;;;9.30;;
29200;SDS011;16244;51.956;12.980;2023-04-23T05:29:06;10.10;;;8.70;;
29200;SDS011;16244;51.956;12.980;2023-04-23T05:31:33;10.90;;;8.97;;
29200;SDS011;16244;51.956;12.980;2023-04-23T05:34:01;9.13;;;7.50;;
29200;SDS011;16244;51.956;12.980;2023-04-23T05:36:28;9.70;;;8.90;;
29200;SDS011;16244;51.956;12.980;2023-04-23T05:38:56;8.83;;;8.03;;
29200;SDS011;16244;51.956;12.980;2023-04-23T05:41:26;8.80;;;8.00;;
29200;SDS011;16244;51.956;12.980;2023-04-23T05:43:53;9.47;;;8.70;;
29200;SDS011;16244;51.956;12.980;2023-04-23T05:46:21;8.53;;;7.83;;
29200;SDS011;16244;51.956;12.980;2023-04-23T05:48:48;9.30;;;7.77;;
29200;SDS011;16244;51.956;12.980;2023-04-23T05:51:16;9.53;;;8.50;;
29200;SDS011;16244;51.956;12.980;2023-04-23T05:53:44;7.97;;;7.17;;
29200;SDS011;16244;51.956;12.980;2023-04-23T05:56:12;9.80;;;7.70;;
29200;SDS011;16244;51.956;12.980;2023-04-23T05:58:41;8.97;;;7.27;;
29200;SDS011;16244;51.956;12.980;2023-04-23T06:01:08;11.90;;;8.20;;
29200;SDS011;16244;51.956;12.980;2023-04-23T06:03:36;7.57;;;7.17;;
29200;SDS011;16244;51.956;12.980;2023-04-23T06:06:03;33.37;;;8.03;;
29200;SDS011;16244;51.956;12.980;2023-04-23T06:08:31;8.53;;;8.07;;
29200;SDS011;16244;51.956;12.980;2023-04-23T06:10:59;9.40;;;8.63;;
29200;SDS011;16244;51.956;12.980;2023-04-23T06:13:27;9.30;;;7.00;;
29200;SDS011;16244;51.956;12.980;2023-04-23T06:15:57;7.50;;;7.10;;
29200;SDS011;16244;51.956;12.980;2023-04-23T06:18:24;10.93;;;8.07;;
29200;SDS011;16244;51.956;12.980;2023-04-23T06:20:52;9.23;;;7.87;;
29200;SDS011;16244;51.956;12.980;2023-04-23T06:23:21;10.80;;;9.87;;
29200;SDS011;16244;51.956;12.980;2023-04-23T06:25:49;13.90;;;12.20;;
29200;SDS011;16244;51.956;12.980;2023-04-23T06:28:17;9.73;;;8.73;;
29200;SDS011;16244;51.956;12.980;2023-04-23T06:30:45;9.33;;;8.43;;
29200;SDS011;16244;51.956;12.980;2023-04-23T06:33:14;8.70;;;8.20;;
29200;SDS011;16244;51.956;12.980;2023-04-23T06:35:42;12.10;;;8.60;;
29200;SDS011;16244;51.956;12.980;2023-04-23T06:38:11;8.77;;;8.00;;
29200;SDS011;16244;51.956;12.980;2023-04-23T06:40:39;24.13;;;12.93;;
29200;SDS011;16244;51.956;12.980;2023-04-23T06:43:07;9.63;;;8.73;;
29200;SDS011;16244;51.956;12.980;2023-04-23T06:45:34;14.67;;;11.20;;
29200;SDS011;16244;51.956;12.980;2023-04-23T06:48:02;9.77;;;8.70;;
29200;SDS011;16244;51.956;12.980;2023-04-23T06:50:31;9.93;;;9.03;;
29200;SDS011;16244;51.956;12.980;2023-04-23T06:52:59;9.63;;;8.80;;
29200;SDS011;16244;51.956;12.980;2023-04-23T06:55:27;13.20;;;8.97;;
29200;SDS011;16244;51.956;12.980;2023-04-23T06:57:55;9.30;;;8.63;;
29200;SDS011;16244;51.956;12.980;2023-04-23T07:00:22;8.43;;;7.67;;
29200;SDS011;16244;51.956;12.980;2023-04-23T07:02:51;8.30;;;7.80;;
29200;SDS011;16244;51.956;12.980;2023-04-23T07:05:18;10.80;;;9.30;;
29200;SDS011;16244;51.956;12.980;2023-04-23T07:07:48;8.53;;;7.93;;
29200;SDS011;16244;51.956;12.980;2023-04-23T07:10:15;9.30;;;8.60;;
29200;SDS011;16244;51.956;12.980;2023-04-23T07:12:43;11.67;;;8.70;;
29200;SDS011;16244;51.956;12.980;2023-04-23T07:15:10;9.57;;;8.67;;
29200;SDS011;16244;51.956;12.980;2023-04-23T07:17:38;8.70;;;8.00;;
29200;SDS011;16244;51.956;12.980;2023-04-23T07:20:07;8.43;;;7.93;;
29200;SDS011;16244;51.956;12.980;2023-04-23T07:22:36;8.93;;;8.23;;
29200;SDS011;16244;51.956;12.980;2023-04-23T07:25:05;10.40;;;9.33;;
29200;SDS011;16244;51.956;12.980;2023-04-23T07:27:34;9.37;;;8.67;;
29200;SDS011;16244;51.956;12.980;2023-04-23T07:30:02;9.70;;;8.80;;
29200;SDS011;16244;51.956;12.980;2023-04-23T07:32:30;8.47;;;7.87;;
29200;SDS011;16244;51.956;12.980;2023-04-23T07:34:57;8.77;;;8.07;;
29200;SDS011;16244;51.956;12.980;2023-04-23T07:37:25;10.03;;;7.57;;
29200;SDS011;16244;51.956;12.980;2023-04-23T07:39:53;8.07;;;7.27;;
29200;SDS011;16244;51.956;12.980;2023-04-23T07:42:22;6.50;;;6.00;;
29200;SDS011;16244;51.956;12.980;2023-04-23T07:44:49;5.87;;;5.47;;
29200;SDS011;16244;51.956;12.980;2023-04-23T07:47:17;7.37;;;6.97;;
29200;SDS011;16244;51.956;12.980;2023-04-23T07:49:44;6.20;;;5.50;;
29200;SDS011;16244;51.956;12.980;2023-04-23T07:52:12;7.20;;;5.53;;
29200;SDS011;16244;51.956;12.980;2023-04-23T07:54:41;6.50;;;6.10;;
29200;SDS011;16244;51.956;12.980;2023-04-23T07:57:08;6.10;;;5.80;;
29200;SDS011;16244;51.956;12.980;2023-04-23T07:59:38;10.03;;;8.23;;
29200;SDS011;16244;51.956;12.980;2023-04-23T08:02:05;12.23;;;10.63;;
29200;SDS011;16244;51.956;12.980;2023-04-23T08:04:36;9.20;;;8.40;;
29200;SDS011;16244;51.956;12.980;2023-04-23T08:07:03;9.07;;;8.20;;
29200;SDS011;16244;51.956;12.980;2023-04-23T08:09:31;17.93;;;11.63;;
29200;SDS011;16244;51.956;12.980;2023-04-23T08:11:59;22.23;;;13.80;;
29200;SDS011;16244;51.956;12.980;2023-04-23T08:14:26;9.47;;;7.40;;
29200;SDS011;16244;51.956;12.980;2023-04-23T08:16:55;20.13;;;14.93;;
29200;SDS011;16244;51.956;12.980;2023-04-23T08:19:23;8.10;;;7.50;;
29200;SDS011;16244;51.956;12.980;2023-04-23T08:21:50;3.27;;;3.10;;
29200;SDS011;16244;51.956;12.980;2023-04-23T08:24:18;4.10;;;3.90;;
29200;SDS011;16244;51.956;12.980;2023-04-23T08:26:46;3.40;;;3.20;;
29200;SDS011;16244;51.956;12.980;2023-04-23T08:29:14;3.37;;;2.83;;
29200;SDS011;16244;51.956;12.980;2023-04-23T08:31:41;3.17;;;3.10;;
29200;SDS011;16244;51.956;12.980;2023-04-23T08:34:13;5.27;;;4.77;;
29200;SDS011;16244;51.956;12.980;2023-04-23T08:36:40;3.70;;;3.50;;
29200;SDS011;16244;51.956;12.980;2023-04-23T08:39:08;3.37;;;3.17;;
29200;SDS011;16244;51.956;12.980;2023-04-23T08:41:37;3.50;;;3.33;;
29200;SDS011;16244;51.956;12.980;2023-04-23T08:44:11;3.70;;;3.50;;
29200;SDS011;16244;51.956;12.980;2023-04-23T08:46:41;5.40;;;3.97;;
29200;SDS011;16244;51.956;12.980;2023-04-23T08:49:12;3.50;;;3.30;;
29200;SDS011;16244;51.956;12.980;2023-04-23T08:51:45;3.90;;;3.70;;
29200;SDS011;16244;51.956;12.980;2023-04-23T08:54:17;3.90;;;3.80;;
29200;SDS011;16244;51.956;12.980;2023-04-23T08:56:48;3.17;;;3.07;;
29200;SDS011;16244;51.956;12.980;2023-04-23T08:59:19;3.00;;;2.90;;
29200;SDS011;16244;51.956;12.980;2023-04-23T09:01:47;5.17;;;4.87;;
29200;SDS011;16244;51.956;12.980;2023-04-23T09:04:17;4.60;;;4.40;;
29200;SDS011;16244;51.956;12.980;2023-04-23T09:06:45;8.97;;;7.30;;
29200;SDS011;16244;51.956;12.980;2023-04-23T09:09:13;7.47;;;6.93;;
29200;SDS011;16244;51.956;12.980;2023-04-23T09:11:43;8.03;;;7.53;;
29200;SDS011;16244;51.956;12.980;2023-04-23T09:14:11;7.70;;;6.90;;
29200;SDS011;16244;51.956;12.980;2023-04-23T09:16:40;9.07;;;8.17;;
29200;SDS011;16244;51.956;12.980;2023-04-23T09:19:07;10.20;;;9.20;;
29200;SDS011;16244;51.956;12.980;2023-04-23T09:21:38;14.00;;;9.20;;
29200;SDS011;16244;51.956;12.980;2023-04-23T09:24:08;11.30;;;10.00;;
29200;SDS011;16244;51.956;12.980;2023-04-23T09:26:42;13.50;;;12.20;;
29200;SDS011;16244;51.956;12.980;2023-04-23T09:29:12;13.20;;;11.80;;
29200;SDS011;16244;51.956;12.980;2023-04-23T09:31:42;15.93;;;13.03;;
29200;SDS011;16244;51.956;12.980;2023-04-23T09:34:10;18.70;;;14.07;;
29200;SDS011;16244;51.956;12.980;2023-04-23T09:36:42;16.97;;;13.53;;
29200;SDS011;16244;51.956;12.980;2023-04-23T09:39:10;16.00;;;13.17;;
29200;SDS011;16244;51.956;12.980;2023-04-23T09:41:39;13.97;;;12.57;;
29200;SDS011;16244;51.956;12.980;2023-04-23T09:44:06;15.27;;;12.93;;
29200;SDS011;16244;51.956;12.980;2023-04-23T09:46:35;14.97;;;12.40;;
29200;SDS011;16244;51.956;12.980;2023-04-23T09:49:04;14.70;;;12.80;;
29200;SDS011;16244;51.956;12.980;2023-04-23T09:51:34;11.50;;;10.20;;
29200;SDS011;16244;51.956;12.980;2023-04-23T09:54:07;12.03;;;10.13;;
29200;SDS011;16244;51.956;12.980;2023-04-23T09:56:37;13.97;;;10.77;;
29200;SDS011;16244;51.956;12.980;2023-04-23T09:59:18;10.10;;;9.17;;
29200;SDS011;16244;51.956;12.980;2023-04-23T10:01:46;12.37;;;11.03;;
29200;SDS011;16244;51.956;12.980;2023-04-23T10:04:16;9.83;;;8.93;;
29200;SDS011;16244;51.956;12.980;2023-04-23T10:06:47;9.80;;;9.03;;
29200;SDS011;16244;51.956;12.980;2023-04-23T10:09:16;10.30;;;9.40;;
29200;SDS011;16244;51.956;12.980;2023-04-23T10:11:48;16.23;;;11.60;;
29200;SDS011;16244;51.956;12.980;2023-04-23T10:14:17;11.93;;;10.83;;
29200;SDS011;16244;51.956;12.980;2023-04-23T10:16:46;12.23;;;10.97;;
29200;SDS011;16244;51.956;12.980;2023-04-23T10:19:16;12.93;;;11.63;;
29200;SDS011;16244;51.956;12.980;2023-04-23T10:21:47;13.10;;;11.80;;
29200;SDS011;16244;51.956;12.980;2023-04-23T10:24:20;12.70;;;11.47;;
29200;SDS011;16244;51.956;12.980;2023-04-23T10:26:49;14.00;;;12.50;;
29200;SDS011;16244;51.956;12.980;2023-04-23T10:29:20;13.00;;;11.70;;
29200;SDS011;16244;51.956;12.980;2023-04-23T10:31:52;11.40;;;10.30;;
29200;SDS011;16244;51.956;12.980;2023-04-23T10:34:21;10.97;;;9.87;;
29200;SDS011;16244;51.956;12.980;2023-04-23T10:36:51;11.40;;;10.30;;
29200;SDS011;16244;51.956;12.980;2023-04-23T10:39:21;12.07;;;10.97;;
29200;SDS011;16244;51.956;12.980;2023-04-23T10:41:51;11.60;;;10.47;;
29200;SDS011;16244;51.956;12.980;2023-04-23T10:44:21;11.20;;;10.20;;
29200;SDS011;16244;51.956;12.980;2023-04-23T10:46:52;10.50;;;9.60;;
29200;SDS011;16244;51.956;12.980;2023-04-23T10:49:22;11.67;;;10.57;;
29200;SDS011;16244;51.956;12.980;2023-04-23T10:51:57;12.67;;;11.20;;
29200;SDS011;16244;51.956;12.980;2023-04-23T10:54:31;11.83;;;10.73;;
29200;SDS011;16244;51.956;12.980;2023-04-23T10:56:59;12.20;;;11.07;;
29200;SDS011;16244;51.956;12.980;2023-04-23T10:59:30;11.80;;;10.80;;
29200;SDS011;16244;51.956;12.980;2023-04-23T11:02:04;12.03;;;10.70;;
29200;SDS011;16244;51.956;12.980;2023-04-23T11:04:34;9.97;;;9.07;;
29200;SDS011;16244;51.956;12.980;2023-04-23T11:07:03;9.63;;;8.30;;
29200;SDS011;16244;51.956;12.980;2023-04-23T11:09:38;8.87;;;8.17;;
29200;SDS011;16244;51.956;12.980;2023-04-23T11:12:07;6.90;;;6.40;;
29200;SDS011;16244;51.956;12.980;2023-04-23T11:14:41;6.87;;;6.37;;
29200;SDS011;16244;51.956;12.980;2023-04-23T11:17:12;7.40;;;6.90;;
29200;SDS011;16244;51.956;12.980;2023-04-23T11:19:41;7.67;;;7.17;;
29200;SDS011;16244;51.956;12.980;2023-04-23T11:22:33;8.67;;;7.97;;
29200;SDS011;16244;51.956;12.980;2023-04-23T11:25:03;7.93;;;7.33;;
29200;SDS011;16244;51.956;12.980;2023-04-23T11:27:35;9.73;;;8.83;;
29200;SDS011;16244;51.956;12.980;2023-04-23T11:30:06;9.70;;;9.00;;
29200;SDS011;16244;51.956;12.980;2023-04-23T11:32:38;10.67;;;9.67;;
29200;SDS011;16244;51.956;12.980;2023-04-23T11:35:07;9.07;;;8.27;;
29200;SDS011;16244;51.956;12.980;2023-04-23T11:37:37;9.10;;;8.50;;
29200;SDS011;16244;51.956;12.980;2023-04-23T11:40:07;9.77;;;9.03;;
29200;SDS011;16244;51.956;12.980;2023-04-23T11:42:39;9.70;;;8.90;;
29200;SDS011;16244;51.956;12.980;2023-04-23T11:45:14;10.90;;;9.83;;
29200;SDS011;16244;51.956;12.980;2023-04-23T11:47:43;10.90;;;8.33;;
29200;SDS011;16244;51.956;12.980;2023-04-23T11:50:15;10.40;;;9.50;;
29200;SDS011;16244;51.956;12.980;2023-04-23T11:52:44;7.67;;;7.17;;
29200;SDS011;16244;51.956;12.980;2023-04-23T11:55:15;8.33;;;7.73;;
29200;SDS011;16244;51.956;12.980;2023-04-23T11:57:43;10.23;;;9.27;;
29200;SDS011;16244;51.956;12.980;2023-04-23T12:00:13;11.20;;;10.20;;
29200;SDS011;16244;51.956;12.980;2023-04-23T12:02:50;13.40;;;12.07;;
29200;SDS011;16244;51.956;12.980;2023-04-23T12:05:22;7.20;;;6.70;;
29200;SDS011;16244;51.956;12.980;2023-04-23T12:08:04;6.47;;;6.07;;
29200;SDS011;16244;51.956;12.980;2023-04-23T12:10:40;8.47;;;7.77;;
29200;SDS011;16244;51.956;12.980;2023-04-23T12:13:12;8.17;;;7.57;;
29200;SDS011;16244;51.956;12.980;2023-04-23T12:15:45;7.23;;;6.73;;
29200;SDS011;16244;51.956;12.980;2023-04-23T12:18:13;7.67;;;7.17;;
29200;SDS011;16244;51.956;12.980;2023-04-23T12:20:41;7.10;;;6.80;;
29200;SDS011;16244;51.956;12.980;2023-04-23T12:23:09;5.20;;;5.07;;
29200;SDS011;16244;51.956;12.980;2023-04-23T12:25:38;5.50;;;5.20;;
29200;SDS011;16244;51.956;12.980;2023-04-23T12:28:07;4.90;;;4.70;;
29200;SDS011;16244;51.956;12.980;2023-04-23T12:30:41;4.00;;;3.90;;
29200;SDS011;16244;51.956;12.980;2023-04-23T12:33:10;5.00;;;4.90;;
29200;SDS011;16244;51.956;12.980;2023-04-23T12:35:38;4.10;;;4.00;;
29200;SDS011;16244;51.956;12.980;2023-04-23T12:38:06;3.67;;;3.53;;
29200;SDS011;16244;51.956;12.980;2023-04-23T12:40:50;3.53;;;2.60;;
29200;SDS011;16244;51.956;12.980;2023-04-23T12:43:18;2.87;;;2.77;;
29200;SDS011;16244;51.956;12.980;2023-04-23T12:45:46;3.87;;;3.50;;
29200;SDS011;16244;51.956;12.980;2023-04-23T12:48:14;3.47;;;3.27;;
29200;SDS011;16244;51.956;12.980;2023-04-23T12:50:41;2.43;;;2.33;;
29200;SDS011;16244;51.956;12.980;2023-04-23T12:53:10;3.03;;;2.93;;
29200;SDS011;16244;51.956;12.980;2023-04-23T12:55:38;2.00;;;1.80;;
29200;SDS011;16244;51.956;12.980;2023-04-23T12:58:09;1.33;;;1.30;;
29200;SDS011;16244;51.956;12.980;2023-04-23T13:00:37;1.60;;;1.60;;
29200;SDS011;16244;51.956;12.980;2023-04-23T13:03:05;1.50;;;1.40;;
29200;SDS011;16244;51.956;12.980;2023-04-23T13:05:33;1.60;;;1.60;;
29200;SDS011;16244;51.956;12.980;2023-04-23T13:08:00;1.90;;;1.90;;
29200;SDS011;16244;51.956;12.980;2023-04-23T13:10:28;1.63;;;1.63;;
29200;SDS011;16244;51.956;12.980;2023-04-23T13:12:56;1.67;;;1.67;;
29200;SDS011;16244;51.956;12.980;2023-04-23T13:15:24;1.70;;;1.70;;
29200;SDS011;16244;51.956;12.980;2023-04-23T13:17:52;1.50;;;1.50;;
29200;SDS011;16244;51.956;12.980;2023-04-23T13:20:19;1.20;;;1.20;;
29200;SDS011;16244;51.956;12.980;2023-04-23T13:22:47;1.30;;;1.30;;
29200;SDS011;16244;51.956;12.980;2023-04-23T13:25:15;2.70;;;0.90;;
29200;SDS011;16244;51.956;12.980;2023-04-23T13:27:42;3.63;;;1.00;;
29200;SDS011;16244;51.956;12.980;2023-04-23T13:30:11;1.17;;;1.17;;
29200;SDS011;16244;51.956;12.980;2023-04-23T13:32:40;0.90;;;0.90;;
29200;SDS011;16244;51.956;12.980;2023-04-23T13:35:08;1.10;;;1.10;;
29200;SDS011;16244;51.956;12.980;2023-04-23T13:37:37;1.47;;;1.37;;
29200;SDS011;16244;51.956;12.980;2023-04-23T13:40:06;0.90;;;0.90;;
29200;SDS011;16244;51.956;12.980;2023-04-23T13:42:34;1.30;;;1.20;;
29200;SDS011;16244;51.956;12.980;2023-04-23T13:45:02;0.90;;;0.90;;
29200;SDS011;16244;51.956;12.980;2023-04-23T13:47:31;2.10;;;0.90;;
29200;SDS011;16244;51.956;12.980;2023-04-23T13:50:01;1.47;;;0.90;;
29200;SDS011;16244;51.956;12.980;2023-04-23T13:52:31;1.00;;;1.00;;
29200;SDS011;16244;51.956;12.980;2023-04-23T13:54:59;0.87;;;0.87;;
29200;SDS011;16244;51.956;12.980;2023-04-23T13:57:28;0.80;;;0.80;;
29200;SDS011;16244;51.956;12.980;2023-04-23T13:59:56;0.97;;;0.97;;
29200;SDS011;16244;51.956;12.980;2023-04-23T14:02:25;3.23;;;1.90;;
29200;SDS011;16244;51.956;12.980;2023-04-23T14:04:53;1.03;;;1.00;;
29200;SDS011;16244;51.956;12.980;2023-04-23T14:07:22;1.47;;;1.37;;
29200;SDS011;16244;51.956;12.980;2023-04-23T14:09:49;0.90;;;0.90;;
29200;SDS011;16244;51.956;12.980;2023-04-23T14:12:19;0.93;;;0.93;;
29200;SDS011;16244;51.956;12.980;2023-04-23T14:14:49;0.90;;;0.90;;
29200;SDS011;16244;51.956;12.980;2023-04-23T14:17:17;0.67;;;0.67;;
29200;SDS011;16244;51.956;12.980;2023-04-23T14:19:45;0.70;;;0.70;;
29200;SDS011;16244;51.956;12.980;2023-04-23T14:22:12;0.80;;;0.80;;
29200;SDS011;16244;51.956;12.980;2023-04-23T14:24:44;0.70;;;0.70;;
29200;SDS011;16244;51.956;12.980;2023-04-23T14:27:15;1.60;;;1.60;;
29200;SDS011;16244;51.956;12.980;2023-04-23T14:29:44;1.27;;;0.90;;
29200;SDS011;16244;51.956;12.980;2023-04-23T14:32:16;6.73;;;0.90;;
29200;SDS011;16244;51.956;12.980;2023-04-23T14:34:44;1.00;;;0.87;;
29200;SDS011;16244;51.956;12.980;2023-04-23T14:37:12;1.47;;;0.70;;